sensor_id;sensor_type;location;lat;lon;timestamp;pressure;altitude;pressure_sealevel;temperature;humidity
53340;BME280;46212;50.258;19.062;2023-09-18T00:00:23;98622.28;;;16.32;100.00
53340;BME280;46212;50.258;19.062;2023-09-18T00:02:49;98632.75;;;16.42;100.00
53340;BME280;46212;50.258;19.062;2023-09-18T00:05:14;98628.88;;;16.34;100.00
53340;BME280;46212;50.258;19.062;2023-09-18T00:07:41;98628.94;;;16.40;100.00
53340;BME280;46212;50.258;19.062;2023-09-18T00:10:09;98626.06;;;16.29;100.00
53340;BME280;46212;50.258;19.062;2023-09-18T00:12:34;98629.66;;;16.35;100.00
53340;BME280;46212;50.258;19.062;2023-09-18T00:15:00;98630.44;;;16.35;100.00
53340;BME280;46212;50.258;19.062;2023-09-18T00:17:25;98632.13;;;16.27;100.00
53340;BME280;46212;50.258;19.062;2023-09-18T00:19:51;98620.50;;;16.29;100.00
53340;BME280;46212;50.258;19.062;2023-09-18T00:22:17;98622.88;;;16.41;100.00
53340;BME280;46212;50.258;19.062;2023-09-18T00:24:42;98627.59;;;16.30;100.00
53340;BME280;46212;50.258;19.062;2023-09-18T00:27:08;98621.19;;;16.24;100.00
53340;BME280;46212;50.258;19.062;2023-09-18T00:29:33;98624.22;;;16.20;100.00
53340;BME280;46212;50.258;19.062;2023-09-18T00:31:58;98627.81;;;16.26;100.00
53340;BME280;46212;50.258;19.062;2023-09-18T00:34:24;98627.84;;;16.32;100.00
53340;BME280;46212;50.258;19.062;2023-09-18T00:36:49;98613.97;;;16.37;100.00
53340;BME280;46212;50.258;19.062;2023-09-18T00:39:14;98622.75;;;16.56;100.00
53340;BME280;46212;50.258;19.062;2023-09-18T00:41:41;98618.06;;;16.42;100.00
53340;BME280;46212;50.258;19.062;2023-09-18T00:44:06;98625.91;;;16.43;100.00
53340;BME280;46212;50.258;19.062;2023-09-18T00:46:32;98627.13;;;16.37;100.00
53340;BME280;46212;50.258;19.062;2023-09-18T00:48:58;98628.75;;;16.49;100.00
53340;BME280;46212;50.258;19.062;2023-09-18T00:51:23;98620.31;;;16.38;100.00
53340;BME280;46212;50.258;19.062;2023-09-18T00:53:49;98632.03;;;16.47;100.00
53340;BME280;46212;50.258;19.062;2023-09-18T00:56:15;98623.13;;;16.43;100.00
53340;BME280;46212;50.258;19.062;2023-09-18T00:58:41;98618.28;;;16.38;100.00
53340;BME280;46212;50.258;19.062;2023-09-18T01:01:07;98617.84;;;16.45;100.00
53340;BME280;46212;50.258;19.062;2023-09-18T01:03:34;98619.06;;;16.39;100.00
53340;BME280;46212;50.258;19.062;2023-09-18T01:05:59;98615.69;;;16.29;100.00
53340;BME280;46212;50.258;19.062;2023-09-18T01:08:25;98614.16;;;16.28;100.00
53340;BME280;46212;50.258;19.062;2023-09-18T01:13:28;98609.94;;;16.38;100.00
53340;BME280;46212;50.258;19.062;2023-09-18T01:15:59;98602.66;;;16.21;100.00
53340;BME280;46212;50.258;19.062;2023-09-18T01:18:27;98606.72;;;16.20;100.00
53340;BME280;46212;50.258;19.062;2023-09-18T01:20:53;98608.19;;;16.15;100.00
53340;BME280;46212;50.258;19.062;2023-09-18T01:23:18;98608.56;;;15.97;100.00
53340;BME280;46212;50.258;19.062;2023-09-18T01:25:43;98608.38;;;15.80;100.00
53340;BME280;46212;50.258;19.062;2023-09-18T01:28:09;98612.34;;;15.74;100.00
53340;BME280;46212;50.258;19.062;2023-09-18T01:30:35;98611.09;;;15.49;100.00
53340;BME280;46212;50.258;19.062;2023-09-18T01:33:01;98617.63;;;15.66;100.00
53340;BME280;46212;50.258;19.062;2023-09-18T01:35:29;98618.13;;;15.70;100.00
53340;BME280;46212;50.258;19.062;2023-09-18T01:37:59;98626.44;;;15.65;100.00
53340;BME280;46212;50.258;19.062;2023-09-18T01:40:26;98616.19;;;15.76;100.00
53340;BME280;46212;50.258;19.062;2023-09-18T01:42:52;98619.03;;;15.82;100.00
53340;BME280;46212;50.258;19.062;2023-09-18T01:45:20;98607.59;;;15.80;99.95
53340;BME280;46212;50.258;19.062;2023-09-18T01:47:46;98616.63;;;15.95;100.00
53340;BME280;46212;50.258;19.062;2023-09-18T01:50:11;98618.16;;;15.96;100.00
53340;BME280;46212;50.258;19.062;2023-09-18T01:52:38;98622.19;;;15.95;100.00
53340;BME280;46212;50.258;19.062;2023-09-18T01:55:04;98619.13;;;15.93;100.00
53340;BME280;46212;50.258;19.062;2023-09-18T01:57:33;98622.47;;;15.97;99.91
53340;BME280;46212;50.258;19.062;2023-09-18T01:59:58;98616.13;;;15.97;99.99
53340;BME280;46212;50.258;19.062;2023-09-18T02:02:23;98604.13;;;15.85;100.00
53340;BME280;46212;50.258;19.062;2023-09-18T02:04:49;98615.09;;;15.94;100.00
53340;BME280;46212;50.258;19.062;2023-09-18T02:07:14;98617.16;;;15.99;99.68
53340;BME280;46212;50.258;19.062;2023-09-18T02:09:40;98621.38;;;15.89;99.94
53340;BME280;46212;50.258;19.062;2023-09-18T02:12:05;98610.94;;;15.84;99.75
53340;BME280;46212;50.258;19.062;2023-09-18T02:14:31;98607.78;;;15.97;99.41
53340;BME280;46212;50.258;19.062;2023-09-18T02:16:56;98601.34;;;15.85;99.63
53340;BME280;46212;50.258;19.062;2023-09-18T02:19:22;98614.94;;;16.03;99.06
53340;BME280;46212;50.258;19.062;2023-09-18T02:21:47;98617.84;;;15.88;99.52
53340;BME280;46212;50.258;19.062;2023-09-18T02:24:13;98608.44;;;15.86;99.44
53340;BME280;46212;50.258;19.062;2023-09-18T02:26:38;98612.69;;;15.81;99.48
53340;BME280;46212;50.258;19.062;2023-09-18T02:29:07;98606.06;;;16.05;99.40
53340;BME280;46212;50.258;19.062;2023-09-18T02:31:34;98598.22;;;16.03;98.82
53340;BME280;46212;50.258;19.062;2023-09-18T02:33:59;98609.16;;;16.07;98.33
53340;BME280;46212;50.258;19.062;2023-09-18T02:36:25;98598.41;;;15.94;98.76
53340;BME280;46212;50.258;19.062;2023-09-18T02:38:50;98604.66;;;15.89;98.96
53340;BME280;46212;50.258;19.062;2023-09-18T02:41:16;98601.13;;;15.88;99.16
53340;BME280;46212;50.258;19.062;2023-09-18T02:43:41;98600.88;;;15.92;99.45
53340;BME280;46212;50.258;19.062;2023-09-18T02:46:08;98599.63;;;15.93;99.60
53340;BME280;46212;50.258;19.062;2023-09-18T02:48:33;98596.59;;;15.91;99.25
53340;BME280;46212;50.258;19.062;2023-09-18T02:51:00;98592.22;;;15.84;99.36
53340;BME280;46212;50.258;19.062;2023-09-18T02:53:25;98597.56;;;15.88;99.00
53340;BME280;46212;50.258;19.062;2023-09-18T02:55:53;98596.53;;;15.85;99.25
53340;BME280;46212;50.258;19.062;2023-09-18T02:58:20;98594.78;;;15.88;99.31
53340;BME280;46212;50.258;19.062;2023-09-18T03:00:47;98608.75;;;15.93;99.21
53340;BME280;46212;50.258;19.062;2023-09-18T03:03:13;98598.06;;;15.86;99.41
53340;BME280;46212;50.258;19.062;2023-09-18T03:05:40;98585.75;;;15.73;99.55
53340;BME280;46212;50.258;19.062;2023-09-18T03:08:07;98590.84;;;15.74;99.98
53340;BME280;46212;50.258;19.062;2023-09-18T03:10:34;98593.38;;;15.72;99.88
53340;BME280;46212;50.258;19.062;2023-09-18T03:13:01;98568.84;;;15.76;99.76
53340;BME280;46212;50.258;19.062;2023-09-18T03:15:26;98584.81;;;15.76;100.00
53340;BME280;46212;50.258;19.062;2023-09-18T03:17:52;98582.50;;;15.74;100.00
53340;BME280;46212;50.258;19.062;2023-09-18T03:20:17;98587.34;;;15.79;100.00
53340;BME280;46212;50.258;19.062;2023-09-18T03:22:42;98580.06;;;15.82;99.89
53340;BME280;46212;50.258;19.062;2023-09-18T03:25:08;98573.50;;;15.85;99.64
53340;BME280;46212;50.258;19.062;2023-09-18T03:27:33;98575.22;;;15.82;99.80
53340;BME280;46212;50.258;19.062;2023-09-18T03:29:59;98574.09;;;15.94;99.14
53340;BME280;46212;50.258;19.062;2023-09-18T03:32:24;98580.06;;;15.82;99.18
53340;BME280;46212;50.258;19.062;2023-09-18T03:34:53;98570.34;;;15.72;99.38
53340;BME280;46212;50.258;19.062;2023-09-18T03:37:19;98571.53;;;15.65;99.50
53340;BME280;46212;50.258;19.062;2023-09-18T03:39:44;98570.03;;;15.70;99.59
53340;BME280;46212;50.258;19.062;2023-09-18T03:42:09;98569.50;;;15.66;99.39
53340;BME280;46212;50.258;19.062;2023-09-18T03:44:35;98566.81;;;15.77;99.32
53340;BME280;46212;50.258;19.062;2023-09-18T03:47:01;98565.56;;;15.78;99.18
53340;BME280;46212;50.258;19.062;2023-09-18T03:49:27;98569.34;;;15.75;98.84
53340;BME280;46212;50.258;19.062;2023-09-18T03:51:53;98562.53;;;15.76;98.03
53340;BME280;46212;50.258;19.062;2023-09-18T03:54:18;98558.31;;;15.86;98.48
53340;BME280;46212;50.258;19.062;2023-09-18T03:56:44;98559.84;;;15.61;98.73
53340;BME280;46212;50.258;19.062;2023-09-18T03:59:11;98546.94;;;15.64;98.99
53340;BME280;46212;50.258;19.062;2023-09-18T04:01:36;98556.19;;;15.50;98.71
53340;BME280;46212;50.258;19.062;2023-09-18T04:04:02;98542.97;;;15.24;98.71
53340;BME280;46212;50.258;19.062;2023-09-18T04:06:36;98547.72;;;14.98;99.18
53340;BME280;46212;50.258;19.062;2023-09-18T04:09:02;98549.88;;;15.09;99.97
53340;BME280;46212;50.258;19.062;2023-09-18T04:11:27;98546.53;;;14.84;100.00
53340;BME280;46212;50.258;19.062;2023-09-18T04:13:53;98544.31;;;15.09;100.00
53340;BME280;46212;50.258;19.062;2023-09-18T04:16:19;98537.06;;;15.17;100.00
53340;BME280;46212;50.258;19.062;2023-09-18T04:18:44;98542.22;;;15.24;100.00
53340;BME280;46212;50.258;19.062;2023-09-18T04:21:09;98546.75;;;15.21;100.00
53340;BME280;46212;50.258;19.062;2023-09-18T04:23:35;98546.31;;;15.08;100.00
53340;BME280;46212;50.258;19.062;2023-09-18T04:26:01;98542.50;;;15.06;100.00
53340;BME280;46212;50.258;19.062;2023-09-18T04:28:27;98541.13;;;14.96;100.00
53340;BME280;46212;50.258;19.062;2023-09-18T04:30:52;98543.41;;;14.97;100.00
53340;BME280;46212;50.258;19.062;2023-09-18T04:33:18;98535.91;;;14.83;100.00
53340;BME280;46212;50.258;19.062;2023-09-18T04:35:44;98542.13;;;14.78;100.00
53340;BME280;46212;50.258;19.062;2023-09-18T04:38:09;98543.88;;;14.75;100.00
53340;BME280;46212;50.258;19.062;2023-09-18T04:40:40;98529.91;;;14.70;100.00
53340;BME280;46212;50.258;19.062;2023-09-18T04:43:05;98533.41;;;14.65;100.00
53340;BME280;46212;50.258;19.062;2023-09-18T04:45:31;98529.00;;;14.58;100.00
53340;BME280;46212;50.258;19.062;2023-09-18T04:47:57;98534.78;;;14.75;100.00
53340;BME280;46212;50.258;19.062;2023-09-18T04:50:22;98528.13;;;14.87;100.00
53340;BME280;46212;50.258;19.062;2023-09-18T04:52:48;98532.41;;;15.08;100.00
53340;BME280;46212;50.258;19.062;2023-09-18T04:55:16;98523.38;;;15.13;100.00
53340;BME280;46212;50.258;19.062;2023-09-18T04:57:41;98526.75;;;15.23;100.00
53340;BME280;46212;50.258;19.062;2023-09-18T05:00:07;98524.88;;;15.34;100.00
53340;BME280;46212;50.258;19.062;2023-09-18T05:02:34;98528.34;;;15.50;100.00
53340;BME280;46212;50.258;19.062;2023-09-18T05:05:00;98525.84;;;15.52;99.84
53340;BME280;46212;50.258;19.062;2023-09-18T05:07:25;98530.72;;;15.36;99.70
53340;BME280;46212;50.258;19.062;2023-09-18T05:09:51;98530.75;;;15.42;99.72
53340;BME280;46212;50.258;19.062;2023-09-18T05:12:16;98536.81;;;15.61;99.58
53340;BME280;46212;50.258;19.062;2023-09-18T05:14:43;98531.91;;;15.76;99.10
53340;BME280;46212;50.258;19.062;2023-09-18T05:17:15;98521.19;;;15.69;98.74
53340;BME280;46212;50.258;19.062;2023-09-18T05:19:40;98523.66;;;15.92;98.56
53340;BME280;46212;50.258;19.062;2023-09-18T05:22:07;98528.81;;;16.00;98.00
53340;BME280;46212;50.258;19.062;2023-09-18T05:24:33;98527.56;;;16.01;97.45
53340;BME280;46212;50.258;19.062;2023-09-18T05:26:58;98532.34;;;16.00;97.69
53340;BME280;46212;50.258;19.062;2023-09-18T05:29:24;98531.81;;;15.96;97.60
53340;BME280;46212;50.258;19.062;2023-09-18T05:31:49;98516.25;;;16.15;97.72
53340;BME280;46212;50.258;19.062;2023-09-18T05:34:15;98516.59;;;16.28;96.99
53340;BME280;46212;50.258;19.062;2023-09-18T05:36:40;98513.56;;;16.26;97.19
53340;BME280;46212;50.258;19.062;2023-09-18T05:39:06;98520.72;;;16.38;97.39
53340;BME280;46212;50.258;19.062;2023-09-18T05:41:36;98509.88;;;16.46;96.67
53340;BME280;46212;50.258;19.062;2023-09-18T05:44:02;98511.75;;;16.60;96.51
53340;BME280;46212;50.258;19.062;2023-09-18T05:46:30;98505.97;;;16.64;96.22
53340;BME280;46212;50.258;19.062;2023-09-18T05:48:56;98504.97;;;16.72;96.46
53340;BME280;46212;50.258;19.062;2023-09-18T05:51:22;98507.13;;;16.99;95.72
53340;BME280;46212;50.258;19.062;2023-09-18T05:53:48;98505.31;;;16.96;95.43
53340;BME280;46212;50.258;19.062;2023-09-18T05:56:14;98506.69;;;17.12;95.18
53340;BME280;46212;50.258;19.062;2023-09-18T05:58:42;98483.59;;;17.17;94.63
53340;BME280;46212;50.258;19.062;2023-09-18T06:01:07;98493.78;;;17.37;93.95
53340;BME280;46212;50.258;19.062;2023-09-18T06:03:33;98498.38;;;17.51;93.33
53340;BME280;46212;50.258;19.062;2023-09-18T06:06:02;98486.75;;;17.58;93.14
53340;BME280;46212;50.258;19.062;2023-09-18T06:08:28;98487.72;;;17.49;93.18
53340;BME280;46212;50.258;19.062;2023-09-18T06:10:55;98492.09;;;17.56;93.57
53340;BME280;46212;50.258;19.062;2023-09-18T06:13:21;98477.59;;;17.58;93.65
53340;BME280;46212;50.258;19.062;2023-09-18T06:15:46;98486.50;;;17.62;93.65
53340;BME280;46212;50.258;19.062;2023-09-18T06:18:11;98486.00;;;17.69;93.31
53340;BME280;46212;50.258;19.062;2023-09-18T06:20:39;98486.25;;;17.76;93.00
53340;BME280;46212;50.258;19.062;2023-09-18T06:23:05;98482.94;;;17.83;92.64
53340;BME280;46212;50.258;19.062;2023-09-18T06:25:30;98485.22;;;17.96;92.20
53340;BME280;46212;50.258;19.062;2023-09-18T06:27:56;98479.63;;;18.13;91.36
53340;BME280;46212;50.258;19.062;2023-09-18T06:30:22;98486.97;;;18.27;91.11
53340;BME280;46212;50.258;19.062;2023-09-18T06:32:47;98486.97;;;18.38;90.92
53340;BME280;46212;50.258;19.062;2023-09-18T06:35:13;98485.16;;;18.40;89.67
53340;BME280;46212;50.258;19.062;2023-09-18T06:37:38;98493.28;;;18.61;88.89
53340;BME280;46212;50.258;19.062;2023-09-18T06:40:04;98493.53;;;18.63;88.94
53340;BME280;46212;50.258;19.062;2023-09-18T06:42:31;98497.84;;;18.69;88.33
53340;BME280;46212;50.258;19.062;2023-09-18T06:44:57;98486.16;;;18.71;88.36
53340;BME280;46212;50.258;19.062;2023-09-18T06:47:22;98481.50;;;18.90;87.17
53340;BME280;46212;50.258;19.062;2023-09-18T06:49:49;98485.53;;;18.94;86.76
53340;BME280;46212;50.258;19.062;2023-09-18T06:52:15;98481.94;;;19.05;86.14
53340;BME280;46212;50.258;19.062;2023-09-18T06:54:41;98483.19;;;19.04;86.29
53340;BME280;46212;50.258;19.062;2023-09-18T06:57:09;98478.31;;;19.10;86.25
53340;BME280;46212;50.258;19.062;2023-09-18T06:59:35;98477.53;;;19.21;85.40
53340;BME280;46212;50.258;19.062;2023-09-18T07:02:01;98478.25;;;19.27;85.81
53340;BME280;46212;50.258;19.062;2023-09-18T07:04:27;98479.69;;;19.39;84.85
53340;BME280;46212;50.258;19.062;2023-09-18T07:06:52;98468.25;;;19.42;84.72
53340;BME280;46212;50.258;19.062;2023-09-18T07:09:19;98482.91;;;19.59;84.65
53340;BME280;46212;50.258;19.062;2023-09-18T07:11:45;98483.91;;;19.62;84.20
53340;BME280;46212;50.258;19.062;2023-09-18T07:14:10;98481.78;;;19.74;84.83
53340;BME280;46212;50.258;19.062;2023-09-18T07:16:35;98483.75;;;19.84;84.43
53340;BME280;46212;50.258;19.062;2023-09-18T07:19:01;98483.19;;;19.91;84.20
53340;BME280;46212;50.258;19.062;2023-09-18T07:21:30;98481.25;;;20.05;83.28
53340;BME280;46212;50.258;19.062;2023-09-18T07:23:55;98477.06;;;20.17;83.47
53340;BME280;46212;50.258;19.062;2023-09-18T07:26:21;98482.38;;;20.26;81.25
53340;BME280;46212;50.258;19.062;2023-09-18T07:28:46;98480.28;;;20.32;81.24
53340;BME280;46212;50.258;19.062;2023-09-18T07:31:12;98485.25;;;20.45;80.58
53340;BME280;46212;50.258;19.062;2023-09-18T07:33:40;98479.28;;;20.54;80.60
53340;BME280;46212;50.258;19.062;2023-09-18T07:36:05;98483.00;;;20.62;79.75
53340;BME280;46212;50.258;19.062;2023-09-18T07:38:31;98468.88;;;20.73;79.62
53340;BME280;46212;50.258;19.062;2023-09-18T07:40:56;98472.28;;;20.85;80.08
53340;BME280;46212;50.258;19.062;2023-09-18T07:43:24;98471.91;;;20.94;79.92
53340;BME280;46212;50.258;19.062;2023-09-18T07:45:50;98459.03;;;21.04;79.06
53340;BME280;46212;50.258;19.062;2023-09-18T07:48:16;98472.19;;;21.14;78.58
53340;BME280;46212;50.258;19.062;2023-09-18T07:50:45;98463.31;;;21.29;78.38
53340;BME280;46212;50.258;19.062;2023-09-18T07:53:11;98466.63;;;21.46;77.17
53340;BME280;46212;50.258;19.062;2023-09-18T07:55:36;98458.63;;;21.50;76.90
53340;BME280;46212;50.258;19.062;2023-09-18T07:58:01;98457.25;;;21.57;76.22
53340;BME280;46212;50.258;19.062;2023-09-18T08:00:28;98459.59;;;21.71;76.13
53340;BME280;46212;50.258;19.062;2023-09-18T08:02:55;98464.91;;;21.75;75.51
53340;BME280;46212;50.258;19.062;2023-09-18T08:05:28;98452.81;;;21.80;74.51
53340;BME280;46212;50.258;19.062;2023-09-18T08:07:55;98453.47;;;21.86;74.14
53340;BME280;46212;50.258;19.062;2023-09-18T08:10:25;98461.53;;;21.95;75.18
53340;BME280;46212;50.258;19.062;2023-09-18T08:12:50;98460.38;;;22.04;72.78
53340;BME280;46212;50.258;19.062;2023-09-18T08:15:19;98462.97;;;22.15;74.15
53340;BME280;46212;50.258;19.062;2023-09-18T08:17:45;98462.88;;;22.20;72.77
53340;BME280;46212;50.258;19.062;2023-09-18T08:20:12;98460.28;;;22.36;73.85
53340;BME280;46212;50.258;19.062;2023-09-18T08:22:38;98450.34;;;22.35;72.40
53340;BME280;46212;50.258;19.062;2023-09-18T08:25:04;98454.03;;;22.43;72.01
53340;BME280;46212;50.258;19.062;2023-09-18T08:27:30;98442.25;;;22.44;71.72
53340;BME280;46212;50.258;19.062;2023-09-18T08:29:56;98448.28;;;22.61;72.36
53340;BME280;46212;50.258;19.062;2023-09-18T08:32:21;98447.03;;;22.75;71.50
53340;BME280;46212;50.258;19.062;2023-09-18T08:34:46;98447.97;;;22.91;70.55
53340;BME280;46212;50.258;19.062;2023-09-18T08:37:12;98445.25;;;22.99;71.10
53340;BME280;46212;50.258;19.062;2023-09-18T08:39:38;98444.72;;;23.00;71.16
53340;BME280;46212;50.258;19.062;2023-09-18T08:42:04;98437.53;;;23.12;69.21
53340;BME280;46212;50.258;19.062;2023-09-18T08:44:31;98444.00;;;23.20;68.68
53340;BME280;46212;50.258;19.062;2023-09-18T08:46:57;98440.19;;;23.31;69.14
53340;BME280;46212;50.258;19.062;2023-09-18T08:49:23;98435.38;;;23.39;67.71
53340;BME280;46212;50.258;19.062;2023-09-18T08:51:49;98430.41;;;23.45;66.89
53340;BME280;46212;50.258;19.062;2023-09-18T08:54:16;98419.94;;;23.53;67.87
53340;BME280;46212;50.258;19.062;2023-09-18T08:56:42;98415.50;;;23.58;66.36
53340;BME280;46212;50.258;19.062;2023-09-18T08:59:07;98421.84;;;23.71;64.97
53340;BME280;46212;50.258;19.062;2023-09-18T09:01:32;98419.41;;;23.75;64.33
53340;BME280;46212;50.258;19.062;2023-09-18T09:03:58;98410.25;;;23.83;65.00
53340;BME280;46212;50.258;19.062;2023-09-18T09:06:26;98418.47;;;23.94;64.40
53340;BME280;46212;50.258;19.062;2023-09-18T09:08:52;98414.22;;;24.08;64.37
53340;BME280;46212;50.258;19.062;2023-09-18T09:11:17;98404.66;;;24.11;64.54
53340;BME280;46212;50.258;19.062;2023-09-18T09:13:45;98411.75;;;24.25;62.98
53340;BME280;46212;50.258;19.062;2023-09-18T09:16:11;98411.41;;;24.28;62.16
53340;BME280;46212;50.258;19.062;2023-09-18T09:18:47;98410.06;;;24.29;61.50
53340;BME280;46212;50.258;19.062;2023-09-18T09:21:13;98406.13;;;24.25;61.21
53340;BME280;46212;50.258;19.062;2023-09-18T09:23:47;98405.78;;;24.36;61.81
53340;BME280;46212;50.258;19.062;2023-09-18T09:26:16;98409.78;;;24.41;61.36
53340;BME280;46212;50.258;19.062;2023-09-18T09:28:43;98413.16;;;24.39;60.47
53340;BME280;46212;50.258;19.062;2023-09-18T09:31:10;98403.38;;;24.40;60.94
53340;BME280;46212;50.258;19.062;2023-09-18T09:33:36;98392.59;;;24.31;60.66
53340;BME280;46212;50.258;19.062;2023-09-18T09:36:07;98396.09;;;24.45;62.71
53340;BME280;46212;50.258;19.062;2023-09-18T09:38:34;98387.81;;;24.47;60.33
53340;BME280;46212;50.258;19.062;2023-09-18T09:41:00;98385.56;;;24.53;60.32
53340;BME280;46212;50.258;19.062;2023-09-18T09:43:28;98389.75;;;24.59;61.36
53340;BME280;46212;50.258;19.062;2023-09-18T09:45:58;98383.38;;;24.66;62.57
53340;BME280;46212;50.258;19.062;2023-09-18T09:48:24;98380.22;;;24.77;61.60
53340;BME280;46212;50.258;19.062;2023-09-18T09:50:57;98375.78;;;24.90;60.83
53340;BME280;46212;50.258;19.062;2023-09-18T09:56:09;98375.25;;;24.99;58.95
53340;BME280;46212;50.258;19.062;2023-09-18T09:58:34;98370.56;;;25.09;61.49
53340;BME280;46212;50.258;19.062;2023-09-18T10:01:03;98376.63;;;25.20;60.88
53340;BME280;46212;50.258;19.062;2023-09-18T10:03:35;98373.81;;;25.28;60.60
53340;BME280;46212;50.258;19.062;2023-09-18T10:06:03;98371.19;;;25.30;59.74
53340;BME280;46212;50.258;19.062;2023-09-18T10:08:30;98378.91;;;25.37;59.86
53340;BME280;46212;50.258;19.062;2023-09-18T10:11:05;98374.03;;;25.37;60.12
53340;BME280;46212;50.258;19.062;2023-09-18T10:13:39;98380.97;;;25.29;60.53
53340;BME280;46212;50.258;19.062;2023-09-18T10:16:06;98362.56;;;25.43;59.43
53340;BME280;46212;50.258;19.062;2023-09-18T10:18:38;98357.47;;;25.57;58.09
53340;BME280;46212;50.258;19.062;2023-09-18T10:21:19;98368.41;;;25.60;55.39
53340;BME280;46212;50.258;19.062;2023-09-18T10:26:32;98374.06;;;25.75;51.00
53340;BME280;46212;50.258;19.062;2023-09-18T10:29:03;98366.34;;;25.91;52.39
53340;BME280;46212;50.258;19.062;2023-09-18T10:31:33;98380.66;;;26.01;49.92
53340;BME280;46212;50.258;19.062;2023-09-18T10:34:01;98361.06;;;26.18;49.35
53340;BME280;46212;50.258;19.062;2023-09-18T10:36:27;98362.56;;;26.26;48.57
53340;BME280;46212;50.258;19.062;2023-09-18T10:38:54;98365.03;;;26.22;48.23
53340;BME280;46212;50.258;19.062;2023-09-18T10:41:21;98370.63;;;26.45;49.15
53340;BME280;46212;50.258;19.062;2023-09-18T10:43:47;98359.44;;;26.62;48.10
53340;BME280;46212;50.258;19.062;2023-09-18T10:46:15;98358.44;;;26.75;47.33
53340;BME280;46212;50.258;19.062;2023-09-18T10:48:42;98357.09;;;26.83;45.81
53340;BME280;46212;50.258;19.062;2023-09-18T10:51:09;98353.88;;;26.87;47.46
53340;BME280;46212;50.258;19.062;2023-09-18T10:53:36;98349.41;;;27.09;47.72
53340;BME280;46212;50.258;19.062;2023-09-18T10:56:02;98347.47;;;27.19;47.72
53340;BME280;46212;50.258;19.062;2023-09-18T10:58:32;98352.63;;;27.45;45.01
53340;BME280;46212;50.258;19.062;2023-09-18T11:01:02;98352.06;;;27.39;45.31
53340;BME280;46212;50.258;19.062;2023-09-18T11:03:27;98356.22;;;27.38;47.13
53340;BME280;46212;50.258;19.062;2023-09-18T11:06:06;98336.66;;;27.57;46.03
53340;BME280;46212;50.258;19.062;2023-09-18T11:08:43;98343.06;;;27.82;45.29
53340;BME280;46212;50.258;19.062;2023-09-18T11:11:10;98332.06;;;28.04;43.74
53340;BME280;46212;50.258;19.062;2023-09-18T11:13:46;98339.13;;;28.20;43.87
53340;BME280;46212;50.258;19.062;2023-09-18T11:16:15;98339.44;;;28.58;44.33
53340;BME280;46212;50.258;19.062;2023-09-18T11:18:41;98328.56;;;28.64;42.71
53340;BME280;46212;50.258;19.062;2023-09-18T11:21:08;98334.13;;;28.79;43.79
53340;BME280;46212;50.258;19.062;2023-09-18T11:23:36;98325.94;;;28.66;44.36
53340;BME280;46212;50.258;19.062;2023-09-18T11:26:11;98324.25;;;28.63;45.34
53340;BME280;46212;50.258;19.062;2023-09-18T11:28:37;98317.22;;;28.81;44.18
53340;BME280;46212;50.258;19.062;2023-09-18T11:31:03;98317.66;;;29.05;44.11
53340;BME280;46212;50.258;19.062;2023-09-18T11:38:59;98312.59;;;28.86;41.41
53340;BME280;46212;50.258;19.062;2023-09-18T11:41:30;98313.66;;;29.08;41.46
53340;BME280;46212;50.258;19.062;2023-09-18T11:46:48;98310.63;;;29.06;42.94
53340;BME280;46212;50.258;19.062;2023-09-18T11:49:19;98311.53;;;29.08;42.13
53340;BME280;46212;50.258;19.062;2023-09-18T11:51:47;98306.06;;;28.93;40.35
53340;BME280;46212;50.258;19.062;2023-09-18T11:54:12;98304.34;;;28.80;40.77
53340;BME280;46212;50.258;19.062;2023-09-18T11:56:39;98300.59;;;28.78;40.47
53340;BME280;46212;50.258;19.062;2023-09-18T11:59:05;98297.31;;;28.81;40.60
53340;BME280;46212;50.258;19.062;2023-09-18T12:01:31;98289.97;;;28.78;41.31
53340;BME280;46212;50.258;19.062;2023-09-18T12:04:01;98287.81;;;28.96;40.98
53340;BME280;46212;50.258;19.062;2023-09-18T12:06:27;98276.06;;;29.09;40.94
53340;BME280;46212;50.258;19.062;2023-09-18T12:08:53;98277.94;;;29.24;41.50
53340;BME280;46212;50.258;19.062;2023-09-18T12:11:20;98284.44;;;29.07;40.06
53340;BME280;46212;50.258;19.062;2023-09-18T12:13:52;98291.81;;;29.10;40.20
53340;BME280;46212;50.258;19.062;2023-09-18T12:16:18;98272.19;;;29.05;39.56
53340;BME280;46212;50.258;19.062;2023-09-18T12:18:49;98274.09;;;29.29;37.93
53340;BME280;46212;50.258;19.062;2023-09-18T12:21:16;98270.47;;;28.92;38.46
53340;BME280;46212;50.258;19.062;2023-09-18T12:23:44;98259.47;;;29.15;38.41
53340;BME280;46212;50.258;19.062;2023-09-18T12:26:14;98252.31;;;29.50;38.24
53340;BME280;46212;50.258;19.062;2023-09-18T12:28:44;98253.56;;;29.76;38.31
53340;BME280;46212;50.258;19.062;2023-09-18T12:31:11;98242.38;;;30.07;39.03
53340;BME280;46212;50.258;19.062;2023-09-18T12:33:37;98234.00;;;30.19;38.10
53340;BME280;46212;50.258;19.062;2023-09-18T12:36:04;98230.66;;;30.51;37.80
53340;BME280;46212;50.258;19.062;2023-09-18T12:38:30;98229.72;;;30.77;35.48
53340;BME280;46212;50.258;19.062;2023-09-18T12:40:56;98232.91;;;30.33;36.29
53340;BME280;46212;50.258;19.062;2023-09-18T12:43:23;98230.53;;;30.49;36.29
53340;BME280;46212;50.258;19.062;2023-09-18T12:45:50;98235.81;;;30.93;34.85
53340;BME280;46212;50.258;19.062;2023-09-18T12:48:17;98235.63;;;31.41;34.32
53340;BME280;46212;50.258;19.062;2023-09-18T12:50:43;98228.09;;;31.76;34.24
53340;BME280;46212;50.258;19.062;2023-09-18T12:53:12;98236.78;;;32.21;32.08
53340;BME280;46212;50.258;19.062;2023-09-18T12:55:39;98237.97;;;32.60;31.34
53340;BME280;46212;50.258;19.062;2023-09-18T12:58:05;98226.19;;;32.44;31.00
53340;BME280;46212;50.258;19.062;2023-09-18T13:00:34;98235.72;;;32.70;30.33